sensor_id;sensor_type;location;lat;lon;timestamp;P1;durP1;ratioP1;P2;durP2;ratioP2
62905;SDS011;49003;51.038;3.602;2022-09-02T00:01:43;12.45;;;4.40;;
62905;SDS011;49003;51.038;3.602;2022-09-02T00:04:15;14.52;;;2.50;;
62905;SDS011;49003;51.038;3.602;2022-09-02T00:06:43;5.50;;;2.47;;
62905;SDS011;49003;51.038;3.602;2022-09-02T00:09:11;9.95;;;2.50;;
62905;SDS011;49003;51.038;3.602;2022-09-02T00:11:41;6.22;;;2.20;;
62905;SDS011;49003;51.038;3.602;2022-09-02T00:14:10;15.60;;;2.78;;
62905;SDS011;49003;51.038;3.602;2022-09-02T00:16:41;5.32;;;2.60;;
62905;SDS011;49003;51.038;3.602;2022-09-02T00:19:09;16.38;;;2.40;;
62905;SDS011;49003;51.038;3.602;2022-09-02T00:21:35;5.20;;;2.72;;
62905;SDS011;49003;51.038;3.602;2022-09-02T00:24:01;8.82;;;4.22;;
62905;SDS011;49003;51.038;3.602;2022-09-02T00:26:28;8.65;;;2.80;;
62905;SDS011;49003;51.038;3.602;2022-09-02T00:28:54;5.93;;;2.50;;
62905;SDS011;49003;51.038;3.602;2022-09-02T00:31:19;6.22;;;2.78;;
62905;SDS011;49003;51.038;3.602;2022-09-02T00:33:45;8.55;;;2.47;;
62905;SDS011;49003;51.038;3.602;2022-09-02T00:36:11;8.00;;;2.58;;
62905;SDS011;49003;51.038;3.602;2022-09-02T00:38:38;3.95;;;2.28;;
62905;SDS011;49003;51.038;3.602;2022-09-02T00:41:05;13.02;;;2.92;;
62905;SDS011;49003;51.038;3.602;2022-09-02T00:46:15;7.85;;;2.70;;
62905;SDS011;49003;51.038;3.602;2022-09-02T00:48:45;7.78;;;2.33;;
62905;SDS011;49003;51.038;3.602;2022-09-02T00:51:21;8.93;;;2.72;;
62905;SDS011;49003;51.038;3.602;2022-09-02T00:53:48;10.52;;;3.00;;
62905;SDS011;49003;51.038;3.602;2022-09-02T00:56:20;5.45;;;2.78;;
62905;SDS011;49003;51.038;3.602;2022-09-02T00:58:48;3.37;;;2.30;;
62905;SDS011;49003;51.038;3.602;2022-09-02T01:01:15;8.75;;;2.58;;
62905;SDS011;49003;51.038;3.602;2022-09-02T01:03:41;9.95;;;2.97;;
62905;SDS011;49003;51.038;3.602;2022-09-02T01:06:09;6.70;;;3.20;;
62905;SDS011;49003;51.038;3.602;2022-09-02T01:08:39;8.65;;;2.80;;
62905;SDS011;49003;51.038;3.602;2022-09-02T01:11:11;9.27;;;2.75;;
62905;SDS011;49003;51.038;3.602;2022-09-02T01:13:39;6.15;;;2.83;;
62905;SDS011;49003;51.038;3.602;2022-09-02T01:18:53;5.35;;;3.10;;
62905;SDS011;49003;51.038;3.602;2022-09-02T01:21:22;7.07;;;2.97;;
62905;SDS011;49003;51.038;3.602;2022-09-02T01:23:48;4.57;;;2.67;;
62905;SDS011;49003;51.038;3.602;2022-09-02T01:26:17;8.18;;;2.97;;
62905;SDS011;49003;51.038;3.602;2022-09-02T01:28:42;8.13;;;3.00;;
62905;SDS011;49003;51.038;3.602;2022-09-02T01:31:08;9.00;;;3.00;;
62905;SDS011;49003;51.038;3.602;2022-09-02T01:33:34;8.70;;;2.97;;
62905;SDS011;49003;51.038;3.602;2022-09-02T01:35:59;8.23;;;3.40;;
62905;SDS011;49003;51.038;3.602;2022-09-02T01:38:27;14.00;;;3.83;;
62905;SDS011;49003;51.038;3.602;2022-09-02T01:40:53;7.40;;;3.20;;
62905;SDS011;49003;51.038;3.602;2022-09-02T01:43:21;6.40;;;3.55;;
62905;SDS011;49003;51.038;3.602;2022-09-02T01:45:50;5.85;;;3.30;;
62905;SDS011;49003;51.038;3.602;2022-09-02T01:48:18;5.78;;;3.00;;
62905;SDS011;49003;51.038;3.602;2022-09-02T01:50:49;24.13;;;4.47;;
62905;SDS011;49003;51.038;3.602;2022-09-02T01:53:19;11.05;;;3.78;;
62905;SDS011;49003;51.038;3.602;2022-09-02T01:55:45;5.63;;;3.42;;
62905;SDS011;49003;51.038;3.602;2022-09-02T01:58:11;13.88;;;3.35;;
62905;SDS011;49003;51.038;3.602;2022-09-02T02:00:36;12.00;;;3.47;;
62905;SDS011;49003;51.038;3.602;2022-09-02T02:03:02;7.70;;;4.07;;
62905;SDS011;49003;51.038;3.602;2022-09-02T02:05:28;9.50;;;3.78;;
62905;SDS011;49003;51.038;3.602;2022-09-02T02:07:54;13.00;;;3.70;;
62905;SDS011;49003;51.038;3.602;2022-09-02T02:10:20;11.75;;;3.83;;
62905;SDS011;49003;51.038;3.602;2022-09-02T02:12:49;7.88;;;3.47;;
62905;SDS011;49003;51.038;3.602;2022-09-02T02:15:16;9.23;;;4.10;;
62905;SDS011;49003;51.038;3.602;2022-09-02T02:17:43;6.88;;;4.15;;
62905;SDS011;49003;51.038;3.602;2022-09-02T02:20:09;8.00;;;3.85;;
62905;SDS011;49003;51.038;3.602;2022-09-02T02:22:36;9.95;;;4.03;;
62905;SDS011;49003;51.038;3.602;2022-09-02T02:25:02;13.48;;;4.32;;
62905;SDS011;49003;51.038;3.602;2022-09-02T02:27:29;10.13;;;4.28;;
62905;SDS011;49003;51.038;3.602;2022-09-02T02:29:55;9.68;;;4.57;;
62905;SDS011;49003;51.038;3.602;2022-09-02T02:32:23;11.25;;;4.18;;
62905;SDS011;49003;51.038;3.602;2022-09-02T02:34:50;10.50;;;4.97;;
62905;SDS011;49003;51.038;3.602;2022-09-02T02:37:15;9.07;;;4.43;;
62905;SDS011;49003;51.038;3.602;2022-09-02T02:39:42;9.05;;;4.50;;
62905;SDS011;49003;51.038;3.602;2022-09-02T02:42:10;10.40;;;4.50;;
62905;SDS011;49003;51.038;3.602;2022-09-02T02:44:37;8.35;;;4.78;;
62905;SDS011;49003;51.038;3.602;2022-09-02T02:47:06;9.77;;;4.80;;
62905;SDS011;49003;51.038;3.602;2022-09-02T02:49:36;11.00;;;4.75;;
62905;SDS011;49003;51.038;3.602;2022-09-02T02:52:05;9.25;;;4.60;;
62905;SDS011;49003;51.038;3.602;2022-09-02T02:54:32;9.18;;;4.72;;
62905;SDS011;49003;51.038;3.602;2022-09-02T02:56:58;12.60;;;4.78;;
62905;SDS011;49003;51.038;3.602;2022-09-02T02:59:26;8.40;;;4.40;;
62905;SDS011;49003;51.038;3.602;2022-09-02T03:01:54;11.02;;;4.70;;
62905;SDS011;49003;51.038;3.602;2022-09-02T03:04:19;8.75;;;4.75;;
62905;SDS011;49003;51.038;3.602;2022-09-02T03:06:45;8.25;;;3.97;;
62905;SDS011;49003;51.038;3.602;2022-09-02T03:09:15;12.02;;;4.60;;
62905;SDS011;49003;51.038;3.602;2022-09-02T03:11:44;7.82;;;5.40;;
62905;SDS011;49003;51.038;3.602;2022-09-02T03:14:10;7.85;;;4.65;;
62905;SDS011;49003;51.038;3.602;2022-09-02T03:16:36;8.23;;;4.72;;
62905;SDS011;49003;51.038;3.602;2022-09-02T03:19:02;12.45;;;5.07;;
62905;SDS011;49003;51.038;3.602;2022-09-02T03:21:28;9.65;;;4.70;;
62905;SDS011;49003;51.038;3.602;2022-09-02T03:23:57;8.50;;;4.70;;
62905;SDS011;49003;51.038;3.602;2022-09-02T03:26:23;8.25;;;4.95;;
62905;SDS011;49003;51.038;3.602;2022-09-02T03:28:54;9.43;;;4.90;;
62905;SDS011;49003;51.038;3.602;2022-09-02T03:31:21;26.13;;;5.32;;
62905;SDS011;49003;51.038;3.602;2022-09-02T03:33:48;10.93;;;5.57;;
62905;SDS011;49003;51.038;3.602;2022-09-02T03:36:18;20.50;;;5.47;;
62905;SDS011;49003;51.038;3.602;2022-09-02T03:38:46;6.75;;;4.75;;
62905;SDS011;49003;51.038;3.602;2022-09-02T03:41:11;14.35;;;5.30;;
62905;SDS011;49003;51.038;3.602;2022-09-02T03:43:37;8.88;;;5.28;;
62905;SDS011;49003;51.038;3.602;2022-09-02T03:46:05;11.50;;;5.40;;
62905;SDS011;49003;51.038;3.602;2022-09-02T03:48:34;8.60;;;5.47;;
62905;SDS011;49003;51.038;3.602;2022-09-02T03:51:00;13.38;;;5.32;;
62905;SDS011;49003;51.038;3.602;2022-09-02T03:53:26;10.00;;;5.55;;
62905;SDS011;49003;51.038;3.602;2022-09-02T03:55:52;8.30;;;5.32;;
62905;SDS011;49003;51.038;3.602;2022-09-02T03:58:19;10.52;;;5.50;;
62905;SDS011;49003;51.038;3.602;2022-09-02T04:00:51;16.67;;;5.80;;
62905;SDS011;49003;51.038;3.602;2022-09-02T04:03:18;9.15;;;5.47;;
62905;SDS011;49003;51.038;3.602;2022-09-02T04:05:47;10.60;;;5.90;;
62905;SDS011;49003;51.038;3.602;2022-09-02T04:08:15;11.82;;;5.53;;
62905;SDS011;49003;51.038;3.602;2022-09-02T04:10:41;10.70;;;5.53;;
62905;SDS011;49003;51.038;3.602;2022-09-02T04:13:07;15.88;;;5.50;;
62905;SDS011;49003;51.038;3.602;2022-09-02T04:15:35;12.32;;;5.85;;
62905;SDS011;49003;51.038;3.602;2022-09-02T04:18:03;9.25;;;5.50;;
62905;SDS011;49003;51.038;3.602;2022-09-02T04:20:29;13.07;;;6.20;;
62905;SDS011;49003;51.038;3.602;2022-09-02T04:22:55;12.38;;;5.55;;
62905;SDS011;49003;51.038;3.602;2022-09-02T04:25:21;8.98;;;5.88;;
62905;SDS011;49003;51.038;3.602;2022-09-02T04:27:47;10.88;;;5.55;;
62905;SDS011;49003;51.038;3.602;2022-09-02T04:30:16;8.45;;;5.93;;
62905;SDS011;49003;51.038;3.602;2022-09-02T04:32:42;9.27;;;6.00;;
62905;SDS011;49003;51.038;3.602;2022-09-02T04:35:08;13.73;;;6.28;;
62905;SDS011;49003;51.038;3.602;2022-09-02T04:37:34;13.23;;;6.47;;
62905;SDS011;49003;51.038;3.602;2022-09-02T04:40:00;19.55;;;6.28;;
62905;SDS011;49003;51.038;3.602;2022-09-02T04:42:26;20.30;;;6.07;;
62905;SDS011;49003;51.038;3.602;2022-09-02T04:44:51;9.20;;;5.72;;
62905;SDS011;49003;51.038;3.602;2022-09-02T04:47:18;11.13;;;5.80;;
62905;SDS011;49003;51.038;3.602;2022-09-02T04:49:44;10.18;;;6.15;;
62905;SDS011;49003;51.038;3.602;2022-09-02T04:52:10;11.20;;;6.07;;
62905;SDS011;49003;51.038;3.602;2022-09-02T04:54:35;10.25;;;6.22;;
62905;SDS011;49003;51.038;3.602;2022-09-02T04:57:01;12.90;;;5.85;;
62905;SDS011;49003;51.038;3.602;2022-09-02T04:59:27;11.07;;;6.45;;
62905;SDS011;49003;51.038;3.602;2022-09-02T05:01:56;11.13;;;7.05;;
62905;SDS011;49003;51.038;3.602;2022-09-02T05:04:21;13.50;;;6.38;;
62905;SDS011;49003;51.038;3.602;2022-09-02T05:06:49;9.82;;;6.47;;
62905;SDS011;49003;51.038;3.602;2022-09-02T05:09:15;15.50;;;6.05;;
62905;SDS011;49003;51.038;3.602;2022-09-02T05:11:43;9.07;;;6.07;;
62905;SDS011;49003;51.038;3.602;2022-09-02T05:14:09;9.90;;;5.38;;
62905;SDS011;49003;51.038;3.602;2022-09-02T05:16:37;15.35;;;6.18;;
62905;SDS011;49003;51.038;3.602;2022-09-02T05:19:07;12.23;;;6.07;;
62905;SDS011;49003;51.038;3.602;2022-09-02T05:21:39;16.10;;;5.88;;
62905;SDS011;49003;51.038;3.602;2022-09-02T05:24:06;7.55;;;5.78;;
62905;SDS011;49003;51.038;3.602;2022-09-02T05:26:32;15.75;;;6.90;;
62905;SDS011;49003;51.038;3.602;2022-09-02T05:29:00;14.88;;;6.40;;
62905;SDS011;49003;51.038;3.602;2022-09-02T05:31:26;12.05;;;6.47;;
62905;SDS011;49003;51.038;3.602;2022-09-02T05:33:53;13.13;;;6.72;;
62905;SDS011;49003;51.038;3.602;2022-09-02T05:36:19;22.27;;;7.63;;
62905;SDS011;49003;51.038;3.602;2022-09-02T05:38:48;15.98;;;6.90;;
62905;SDS011;49003;51.038;3.602;2022-09-02T05:41:16;13.57;;;6.75;;
62905;SDS011;49003;51.038;3.602;2022-09-02T05:43:46;12.05;;;6.10;;
62905;SDS011;49003;51.038;3.602;2022-09-02T05:46:16;13.07;;;6.55;;
62905;SDS011;49003;51.038;3.602;2022-09-02T05:48:43;19.23;;;6.10;;
62905;SDS011;49003;51.038;3.602;2022-09-02T05:51:40;18.52;;;6.13;;
62905;SDS011;49003;51.038;3.602;2022-09-02T05:54:15;10.35;;;5.53;;
62905;SDS011;49003;51.038;3.602;2022-09-02T05:56:43;10.23;;;5.15;;
62905;SDS011;49003;51.038;3.602;2022-09-02T05:59:10;12.15;;;5.38;;
62905;SDS011;49003;51.038;3.602;2022-09-02T06:01:39;13.50;;;5.10;;
62905;SDS011;49003;51.038;3.602;2022-09-02T06:04:05;14.02;;;5.10;;
62905;SDS011;49003;51.038;3.602;2022-09-02T06:06:34;16.75;;;5.15;;
62905;SDS011;49003;51.038;3.602;2022-09-02T06:09:02;16.35;;;5.05;;
62905;SDS011;49003;51.038;3.602;2022-09-02T06:11:35;11.52;;;5.05;;
62905;SDS011;49003;51.038;3.602;2022-09-02T06:14:04;10.65;;;5.20;;
62905;SDS011;49003;51.038;3.602;2022-09-02T06:16:33;15.65;;;5.05;;
62905;SDS011;49003;51.038;3.602;2022-09-02T06:18:59;17.70;;;4.70;;
62905;SDS011;49003;51.038;3.602;2022-09-02T06:21:27;9.65;;;5.40;;
62905;SDS011;49003;51.038;3.602;2022-09-02T06:23:55;9.90;;;5.38;;
62905;SDS011;49003;51.038;3.602;2022-09-02T06:26:21;11.18;;;5.40;;
62905;SDS011;49003;51.038;3.602;2022-09-02T06:28:47;13.65;;;5.03;;
62905;SDS011;49003;51.038;3.602;2022-09-02T06:31:17;10.25;;;5.20;;
62905;SDS011;49003;51.038;3.602;2022-09-02T06:33:45;14.15;;;4.57;;
62905;SDS011;49003;51.038;3.602;2022-09-02T06:36:13;16.67;;;4.53;;
62905;SDS011;49003;51.038;3.602;2022-09-02T06:38:41;12.63;;;4.82;;
62905;SDS011;49003;51.038;3.602;2022-09-02T06:41:15;15.65;;;5.00;;
62905;SDS011;49003;51.038;3.602;2022-09-02T06:43:44;13.32;;;4.80;;
62905;SDS011;49003;51.038;3.602;2022-09-02T06:46:18;7.55;;;4.55;;
62905;SDS011;49003;51.038;3.602;2022-09-02T06:48:46;15.10;;;5.38;;
62905;SDS011;49003;51.038;3.602;2022-09-02T06:51:15;17.23;;;5.03;;
62905;SDS011;49003;51.038;3.602;2022-09-02T06:53:45;19.85;;;4.82;;
62905;SDS011;49003;51.038;3.602;2022-09-02T06:56:11;8.65;;;4.85;;
62905;SDS011;49003;51.038;3.602;2022-09-02T06:58:37;16.58;;;4.88;;
62905;SDS011;49003;51.038;3.602;2022-09-02T07:01:05;21.13;;;5.28;;
62905;SDS011;49003;51.038;3.602;2022-09-02T07:03:31;21.65;;;4.90;;
62905;SDS011;49003;51.038;3.602;2022-09-02T07:06:17;15.93;;;5.00;;
62905;SDS011;49003;51.038;3.602;2022-09-02T07:08:44;16.45;;;4.78;;
62905;SDS011;49003;51.038;3.602;2022-09-02T07:11:15;10.68;;;5.10;;
62905;SDS011;49003;51.038;3.602;2022-09-02T07:13:44;14.68;;;5.82;;
62905;SDS011;49003;51.038;3.602;2022-09-02T07:16:10;14.02;;;4.72;;
62905;SDS011;49003;51.038;3.602;2022-09-02T07:18:35;16.05;;;4.50;;
62905;SDS011;49003;51.038;3.602;2022-09-02T07:21:01;19.83;;;5.75;;
62905;SDS011;49003;51.038;3.602;2022-09-02T07:23:34;18.57;;;4.87;;
62905;SDS011;49003;51.038;3.602;2022-09-02T07:26:00;20.00;;;4.97;;
62905;SDS011;49003;51.038;3.602;2022-09-02T07:28:26;13.68;;;4.22;;
62905;SDS011;49003;51.038;3.602;2022-09-02T07:30:52;16.30;;;5.28;;
62905;SDS011;49003;51.038;3.602;2022-09-02T07:33:19;14.73;;;4.82;;
62905;SDS011;49003;51.038;3.602;2022-09-02T07:35:46;19.48;;;4.75;;
62905;SDS011;49003;51.038;3.602;2022-09-02T07:38:13;11.48;;;4.38;;
62905;SDS011;49003;51.038;3.602;2022-09-02T07:40:39;10.65;;;4.45;;
62905;SDS011;49003;51.038;3.602;2022-09-02T07:43:07;17.17;;;3.72;;
62905;SDS011;49003;51.038;3.602;2022-09-02T07:45:34;8.75;;;3.80;;
62905;SDS011;49003;51.038;3.602;2022-09-02T07:48:02;12.93;;;3.75;;
62905;SDS011;49003;51.038;3.602;2022-09-02T07:50:33;9.10;;;3.63;;
62905;SDS011;49003;51.038;3.602;2022-09-02T07:53:00;9.27;;;4.15;;
62905;SDS011;49003;51.038;3.602;2022-09-02T07:55:28;5.82;;;3.60;;
62905;SDS011;49003;51.038;3.602;2022-09-02T07:57:55;8.35;;;4.20;;
62905;SDS011;49003;51.038;3.602;2022-09-02T08:00:20;8.65;;;3.55;;
62905;SDS011;49003;51.038;3.602;2022-09-02T08:02:47;10.90;;;4.00;;
62905;SDS011;49003;51.038;3.602;2022-09-02T08:05:13;6.57;;;3.90;;
62905;SDS011;49003;51.038;3.602;2022-09-02T08:07:39;5.85;;;3.78;;
62905;SDS011;49003;51.038;3.602;2022-09-02T08:10:06;6.93;;;3.65;;
62905;SDS011;49003;51.038;3.602;2022-09-02T08:12:34;8.32;;;3.92;;
62905;SDS011;49003;51.038;3.602;2022-09-02T08:15:02;6.47;;;3.33;;
62905;SDS011;49003;51.038;3.602;2022-09-02T08:17:29;17.13;;;4.57;;
62905;SDS011;49003;51.038;3.602;2022-09-02T08:19:56;9.60;;;3.85;;
62905;SDS011;49003;51.038;3.602;2022-09-02T08:22:22;9.88;;;3.92;;
62905;SDS011;49003;51.038;3.602;2022-09-02T08:24:49;9.40;;;3.53;;
62905;SDS011;49003;51.038;3.602;2022-09-02T08:27:14;7.25;;;3.13;;
62905;SDS011;49003;51.038;3.602;2022-09-02T08:29:43;13.75;;;3.75;;
62905;SDS011;49003;51.038;3.602;2022-09-02T08:32:08;18.50;;;3.97;;
62905;SDS011;49003;51.038;3.602;2022-09-02T08:34:34;10.85;;;3.50;;
62905;SDS011;49003;51.038;3.602;2022-09-02T08:37:02;10.18;;;3.25;;
62905;SDS011;49003;51.038;3.602;2022-09-02T08:39:30;8.10;;;3.42;;
62905;SDS011;49003;51.038;3.602;2022-09-02T08:42:21;11.45;;;4.03;;
62905;SDS011;49003;51.038;3.602;2022-09-02T08:44:42;62.38;;;7.05;;
62905;SDS011;49003;51.038;3.602;2022-09-02T08:47:18;27.88;;;4.85;;
62905;SDS011;49003;51.038;3.602;2022-09-02T08:49:54;10.82;;;3.47;;
62905;SDS011;49003;51.038;3.602;2022-09-02T08:55:03;6.13;;;3.20;;
62905;SDS011;49003;51.038;3.602;2022-09-02T08:57:34;6.13;;;3.35;;
62905;SDS011;49003;51.038;3.602;2022-09-02T09:00:00;3.97;;;2.85;;
62905;SDS011;49003;51.038;3.602;2022-09-02T09:02:36;7.85;;;3.33;;
62905;SDS011;49003;51.038;3.602;2022-09-02T09:13:43;26.95;;;4.68;;
62905;SDS011;49003;51.038;3.602;2022-09-02T09:21:29;7.97;;;3.10;;
62905;SDS011;49003;51.038;3.602;2022-09-02T09:23:55;10.50;;;3.08;;
62905;SDS011;49003;51.038;3.602;2022-09-02T09:26:27;14.65;;;2.95;;
62905;SDS011;49003;51.038;3.602;2022-09-02T09:28:54;15.80;;;2.90;;
62905;SDS011;49003;51.038;3.602;2022-09-02T09:31:27;7.03;;;2.78;;
62905;SDS011;49003;51.038;3.602;2022-09-02T09:34:07;10.98;;;3.17;;
62905;SDS011;49003;51.038;3.602;2022-09-02T09:36:49;9.70;;;3.05;;
62905;SDS011;49003;51.038;3.602;2022-09-02T09:39:18;3.28;;;2.50;;
62905;SDS011;49003;51.038;3.602;2022-09-02T09:41:45;8.52;;;2.78;;
62905;SDS011;49003;51.038;3.602;2022-09-02T09:47:06;6.97;;;3.20;;
62905;SDS011;49003;51.038;3.602;2022-09-02T09:49:33;11.30;;;2.83;;
62905;SDS011;49003;51.038;3.602;2022-09-02T09:52:03;6.65;;;2.42;;
62905;SDS011;49003;51.038;3.602;2022-09-02T09:54:31;6.88;;;2.72;;
62905;SDS011;49003;51.038;3.602;2022-09-02T09:57:18;4.47;;;2.15;;
62905;SDS011;49003;51.038;3.602;2022-09-02T09:59:45;7.07;;;2.90;;
62905;SDS011;49003;51.038;3.602;2022-09-02T10:02:23;6.25;;;2.40;;
62905;SDS011;49003;51.038;3.602;2022-09-02T10:04:54;8.77;;;2.30;;
62905;SDS011;49003;51.038;3.602;2022-09-02T10:07:36;7.20;;;2.28;;
62905;SDS011;49003;51.038;3.602;2022-09-02T10:10:20;6.53;;;2.58;;
62905;SDS011;49003;51.038;3.602;2022-09-02T10:12:48;11.05;;;2.25;;
62905;SDS011;49003;51.038;3.602;2022-09-02T10:15:18;3.65;;;2.20;;
62905;SDS011;49003;51.038;3.602;2022-09-02T10:20:51;3.53;;;2.20;;
62905;SDS011;49003;51.038;3.602;2022-09-02T10:24:07;2.88;;;2.20;;
62905;SDS011;49003;51.038;3.602;2022-09-02T10:34:49;4.53;;;2.47;;
62905;SDS011;49003;51.038;3.602;2022-09-02T10:40:19;6.43;;;1.92;;
62905;SDS011;49003;51.038;3.602;2022-09-02T10:43:05;5.90;;;2.10;;
62905;SDS011;49003;51.038;3.602;2022-09-02T10:45:40;6.65;;;2.22;;
62905;SDS011;49003;51.038;3.602;2022-09-02T10:51:31;3.40;;;2.00;;
62905;SDS011;49003;51.038;3.602;2022-09-02T11:02:16;3.50;;;1.90;;
62905;SDS011;49003;51.038;3.602;2022-09-02T11:07:18;4.45;;;2.08;;
62905;SDS011;49003;51.038;3.602;2022-09-02T11:09:52;2.88;;;1.85;;
62905;SDS011;49003;51.038;3.602;2022-09-02T11:12:24;3.47;;;1.73;;
62905;SDS011;49003;51.038;3.602;2022-09-02T11:26:05;5.35;;;1.55;;
62905;SDS011;49003;51.038;3.602;2022-09-02T11:28:53;2.05;;;1.83;;
62905;SDS011;49003;51.038;3.602;2022-09-02T11:31:37;3.67;;;1.80;;
62905;SDS011;49003;51.038;3.602;2022-09-02T11:34:18;4.18;;;1.75;;
62905;SDS011;49003;51.038;3.602;2022-09-02T11:37:09;7.13;;;1.98;;
62905;SDS011;49003;51.038;3.602;2022-09-02T11:39:53;4.10;;;1.73;;
62905;SDS011;49003;51.038;3.602;2022-09-02T11:42:48;4.60;;;1.80;;
62905;SDS011;49003;51.038;3.602;2022-09-02T11:48:35;5.45;;;1.77;;
62905;SDS011;49003;51.038;3.602;2022-09-02T11:54:13;2.40;;;1.80;;
62905;SDS011;49003;51.038;3.602;2022-09-02T11:56:45;9.10;;;2.08;;
62905;SDS011;49003;51.038;3.602;2022-09-02T11:59:20;6.43;;;1.85;;
62905;SDS011;49003;51.038;3.602;2022-09-02T12:02:06;10.88;;;2.10;;
62905;SDS011;49003;51.038;3.602;2022-09-02T12:04:35;8.57;;;1.80;;
62905;SDS011;49003;51.038;3.602;2022-09-02T12:15:08;4.65;;;1.83;;
62905;SDS011;49003;51.038;3.602;2022-09-02T12:23:08;3.50;;;1.58;;
62905;SDS011;49003;51.038;3.602;2022-09-02T12:26:01;5.43;;;2.20;;
62905;SDS011;49003;51.038;3.602;2022-09-02T12:28:32;4.75;;;1.90;;
62905;SDS011;49003;51.038;3.602;2022-09-02T12:35:57;2.50;;;1.80;;
62905;SDS011;49003;51.038;3.602;2022-09-02T12:38:27;1.95;;;1.63;;
62905;SDS011;49003;51.038;3.602;2022-09-02T12:41:29;5.63;;;2.10;;
62905;SDS011;49003;51.038;3.602;2022-09-02T12:47:03;4.03;;;1.80;;
62905;SDS011;49003;51.038;3.602;2022-09-02T12:52:44;2.85;;;1.83;;
62905;SDS011;49003;51.038;3.602;2022-09-02T12:55:30;4.55;;;1.90;;
62905;SDS011;49003;51.038;3.602;2022-09-02T13:03:45;2.22;;;1.60;;
62905;SDS011;49003;51.038;3.602;2022-09-02T13:20:59;11.38;;;2.40;;
62905;SDS011;49003;51.038;3.602;2022-09-02T13:26:26;5.53;;;1.63;;
62905;SDS011;49003;51.038;3.602;2022-09-02T13:31:40;7.32;;;2.08;;
62905;SDS011;49003;51.038;3.602;2022-09-02T13:34:09;2.50;;;2.00;;
62905;SDS011;49003;51.038;3.602;2022-09-02T13:36:39;3.63;;;1.88;;
62905;SDS011;49003;51.038;3.602;2022-09-02T13:39:26;9.32;;;1.70;;
62905;SDS011;49003;51.038;3.602;2022-09-02T13:41:54;3.15;;;1.70;;
62905;SDS011;49003;51.038;3.602;2022-09-02T13:44:23;4.95;;;1.70;;
62905;SDS011;49003;51.038;3.602;2022-09-02T13:46:56;2.95;;;1.70;;
62905;SDS011;49003;51.038;3.602;2022-09-02T13:49:39;2.47;;;1.80;;
62905;SDS011;49003;51.038;3.602;2022-09-02T13:52:06;6.50;;;1.77;;
62905;SDS011;49003;51.038;3.602;2022-09-02T13:54:38;1.60;;;1.50;;
62905;SDS011;49003;51.038;3.602;2022-09-02T13:57:11;4.47;;;1.95;;
62905;SDS011;49003;51.038;3.602;2022-09-02T13:59:46;5.85;;;1.98;;
62905;SDS011;49003;51.038;3.602;2022-09-02T14:02:23;3.47;;;1.70;;
62905;SDS011;49003;51.038;3.602;2022-09-02T14:07:35;5.30;;;1.80;;
62905;SDS011;49003;51.038;3.602;2022-09-02T14:10:05;7.32;;;1.90;;
62905;SDS011;49003;51.038;3.602;2022-09-02T14:12:34;2.97;;;2.10;;
62905;SDS011;49003;51.038;3.602;2022-09-02T14:15:01;5.50;;;2.00;;
62905;SDS011;49003;51.038;3.602;2022-09-02T14:17:31;8.63;;;1.73;;
62905;SDS011;49003;51.038;3.602;2022-09-02T14:20:33;5.65;;;1.90;;
62905;SDS011;49003;51.038;3.602;2022-09-02T14:22:53;2.38;;;1.80;;
62905;SDS011;49003;51.038;3.602;2022-09-02T14:25:23;6.40;;;1.85;;
62905;SDS011;49003;51.038;3.602;2022-09-02T14:27:54;4.03;;;1.70;;
62905;SDS011;49003;51.038;3.602;2022-09-02T14:30:39;3.28;;;1.80;;
62905;SDS011;49003;51.038;3.602;2022-09-02T14:33:15;7.75;;;1.90;;
62905;SDS011;49003;51.038;3.602;2022-09-02T14:35:59;12.35;;;2.00;;
62905;SDS011;49003;51.038;3.602;2022-09-02T14:43:54;5.32;;;1.90;;
62905;SDS011;49003;51.038;3.602;2022-09-02T14:46:34;4.35;;;1.65;;
62905;SDS011;49003;51.038;3.602;2022-09-02T14:49:06;3.15;;;1.85;;
62905;SDS011;49003;51.038;3.602;2022-09-02T14:51:42;5.32;;;1.80;;
62905;SDS011;49003;51.038;3.602;2022-09-02T14:54:10;4.90;;;1.80;;
62905;SDS011;49003;51.038;3.602;2022-09-02T14:56:46;4.40;;;1.98;;
62905;SDS011;49003;51.038;3.602;2022-09-02T14:59:14;6.10;;;1.85;;
62905;SDS011;49003;51.038;3.602;2022-09-02T15:01:40;5.57;;;1.90;;
62905;SDS011;49003;51.038;3.602;2022-09-02T15:04:10;2.58;;;1.73;;
62905;SDS011;49003;51.038;3.602;2022-09-02T15:06:36;2.22;;;1.50;;
62905;SDS011;49003;51.038;3.602;2022-09-02T15:09:02;2.70;;;1.70;;
62905;SDS011;49003;51.038;3.602;2022-09-02T15:11:30;3.15;;;1.90;;
62905;SDS011;49003;51.038;3.602;2022-09-02T15:13:58;5.90;;;1.83;;
62905;SDS011;49003;51.038;3.602;2022-09-02T15:16:24;5.47;;;1.73;;
62905;SDS011;49003;51.038;3.602;2022-09-02T15:18:50;7.47;;;1.95;;
62905;SDS011;49003;51.038;3.602;2022-09-02T15:21:18;5.53;;;1.63;;
62905;SDS011;49003;51.038;3.602;2022-09-02T15:23:46;2.33;;;1.52;;
62905;SDS011;49003;51.038;3.602;2022-09-02T15:26:13;4.38;;;1.98;;
62905;SDS011;49003;51.038;3.602;2022-09-02T15:28:42;2.88;;;1.83;;
62905;SDS011;49003;51.038;3.602;2022-09-02T15:31:10;2.78;;;1.83;;
62905;SDS011;49003;51.038;3.602;2022-09-02T15:33:36;6.25;;;2.08;;
62905;SDS011;49003;51.038;3.602;2022-09-02T15:36:06;11.45;;;2.00;;
62905;SDS011;49003;51.038;3.602;2022-09-02T15:38:37;4.40;;;2.40;;
62905;SDS011;49003;51.038;3.602;2022-09-02T15:41:09;9.55;;;2.63;;
62905;SDS011;49003;51.038;3.602;2022-09-02T15:43:45;4.00;;;2.25;;
62905;SDS011;49003;51.038;3.602;2022-09-02T15:46:19;3.00;;;1.98;;
62905;SDS011;49003;51.038;3.602;2022-09-02T15:48:53;4.40;;;2.00;;
62905;SDS011;49003;51.038;3.602;2022-09-02T15:51:23;5.22;;;2.17;;
62905;SDS011;49003;51.038;3.602;2022-09-02T15:53:53;10.00;;;2.05;;
62905;SDS011;49003;51.038;3.602;2022-09-02T15:56:23;1.92;;;1.80;;
62905;SDS011;49003;51.038;3.602;2022-09-02T15:59:23;7.13;;;2.22;;
62905;SDS011;49003;51.038;3.602;2022-09-02T16:01:48;6.28;;;2.08;;
62905;SDS011;49003;51.038;3.602;2022-09-02T16:04:24;2.42;;;1.92;;
62905;SDS011;49003;51.038;3.602;2022-09-02T16:06:51;9.63;;;2.25;;
62905;SDS011;49003;51.038;3.602;2022-09-02T16:09:19;6.95;;;2.17;;
62905;SDS011;49003;51.038;3.602;2022-09-02T16:11:46;9.00;;;2.55;;
62905;SDS011;49003;51.038;3.602;2022-09-02T16:14:13;2.28;;;2.08;;
62905;SDS011;49003;51.038;3.602;2022-09-02T16:16:42;2.85;;;2.13;;
62905;SDS011;49003;51.038;3.602;2022-09-02T16:19:09;3.15;;;2.33;;
62905;SDS011;49003;51.038;3.602;2022-09-02T16:21:36;6.55;;;2.40;;
62905;SDS011;49003;51.038;3.602;2022-09-02T16:24:03;6.45;;;2.28;;
62905;SDS011;49003;51.038;3.602;2022-09-02T16:26:31;3.47;;;2.67;;
62905;SDS011;49003;51.038;3.602;2022-09-02T16:28:59;2.72;;;2.00;;
62905;SDS011;49003;51.038;3.602;2022-09-02T16:31:29;4.32;;;2.42;;
62905;SDS011;49003;51.038;3.602;2022-09-02T16:33:58;5.88;;;2.00;;
62905;SDS011;49003;51.038;3.602;2022-09-02T16:36:32;3.58;;;2.42;;
62905;SDS011;49003;51.038;3.602;2022-09-02T16:39:04;6.03;;;2.50;;
62905;SDS011;49003;51.038;3.602;2022-09-02T16:44:11;7.32;;;2.47;;
62905;SDS011;49003;51.038;3.602;2022-09-02T16:46:42;10.20;;;2.80;;
62905;SDS011;49003;51.038;3.602;2022-09-02T16:49:09;4.28;;;2.47;;
62905;SDS011;49003;51.038;3.602;2022-09-02T16:51:37;8.88;;;2.78;;
62905;SDS011;49003;51.038;3.602;2022-09-02T16:54:04;9.13;;;3.00;;
62905;SDS011;49003;51.038;3.602;2022-09-02T16:56:32;4.50;;;2.72;;
62905;SDS011;49003;51.038;3.602;2022-09-02T16:59:00;9.90;;;3.28;;
62905;SDS011;49003;51.038;3.602;2022-09-02T17:01:30;4.45;;;3.75;;
62905;SDS011;49003;51.038;3.602;2022-09-02T17:03:59;9.57;;;4.13;;
62905;SDS011;49003;51.038;3.602;2022-09-02T17:06:25;11.98;;;4.50;;
62905;SDS011;49003;51.038;3.602;2022-09-02T17:08:52;11.70;;;4.65;;
62905;SDS011;49003;51.038;3.602;2022-09-02T17:11:21;9.68;;;4.00;;